Portland Hillsboro Airport
KHIO : now visible

Airfield :











YOU CAN JOIN US ON...

 
LOGIN :

Register | Disclaimer

   EN    FR    IT 

 









Legend :    VFR   Marginal VFR   IFR   Intensive IFR   Very Intensive IFR
Visi :
Ceiling :
>= 8 km
>= 3000ft
5 to 8 km
1000 to 3000 ft
1500m to 5 km
500 to 1000 ft
800 to 1500m
200 to 500 ft
< 800m
< 200 ft
Symbols :   Thunderstorms  Fog  Heavy snow  Heavy precipitations  Wind > 20 kt






- Airport Elevation : 208 ft


KHIO - Portland Hillsboro

CURRENT METAR :
  • 281353Z 16007KT 10SM -RA SCT016 BKN036 OVC060 11/10 A3002 RMK AO2 RAB30 SLP164 P0001 T01060100

EXPIRED METARs :
  • 281253Z 19003KT 10SM BKN016 11/10 A3001 RMK AO2 RAE04 SLP162 P0000 T01110100
  • 281243Z AUTO 21004KT 10SM BKN016 BKN022 11/10 A3001 RMK AO2 RAE04 P0000 T01110100
  • 281153Z AUTO 17008KT 10SM -RA FEW041 BKN070 OVC110 11/11 A2998 RMK AO2 RAB1055 SLP152 P0002 60018 70047 T01110106 10117 20111 50005

TAF KHIO
Valid from the 28 at 12:00 until the 29 at 12:00 UTC


281139Z 2812/2912 17007KT P6SM -SHRA SCT015 BKN050
TEMPO 2812/2816 BKN015
FM281630 19009KT P6SM -SHRA BKN025 BKN050
FM281830 20008KT P6SM -SHRA SCT025 BKN040
FM290200 23004KT P6SM VCSH SCT040
KZSE FIR / North America



MET'MAP, your aeronautical weather chart ! - Copyright ORBIFLY December 2007 - Disclaimer

ORBIFLY MET'MAP TEAM :

Programming & Development : Alexandra Zaïnal
Concept & original design : Baudouin d'Aumeries
Assistance for programming : Marc-Olivier Méhu
Technical & hardware support : Manuel Goepfert

Contact : metmap@orbifly.com




SOURCES & CREDITS :

   NOAA       Earth
Advisory